createdAt,value
2019-04-30T00:06:11.493Z,8.93
2019-04-30T00:08:45.160Z,10.27
2019-04-30T00:11:15.960Z,9.07
2019-04-30T00:17:10.685Z,9.70
2019-04-30T00:23:22.686Z,9.60
2019-04-30T00:25:58.241Z,8.73
2019-04-30T00:28:31.203Z,10.47
2019-04-30T00:31:01.357Z,8.50
2019-04-30T00:34:02.884Z,8.73
2019-04-30T00:36:34.134Z,8.73
2019-04-30T00:39:53.093Z,10.07
2019-04-30T00:42:28.654Z,9.63
2019-04-30T00:44:59.579Z,8.07
2019-04-30T00:47:29.743Z,7.93
2019-04-30T00:50:00.422Z,7.40
2019-04-30T00:56:05.860Z,6.37
2019-04-30T00:59:02.524Z,6.93
2019-04-30T01:13:50.465Z,7.37
2019-04-30T01:16:23.645Z,7.03
2019-04-30T01:21:30.382Z,6.57
2019-04-30T01:24:01.868Z,5.37
2019-04-30T01:29:46.055Z,4.83
2019-04-30T01:32:56.840Z,4.70
2019-04-30T01:35:29.027Z,4.00
2019-04-30T01:40:54.843Z,5.42
2019-04-30T01:43:31.564Z,5.53
2019-04-30T01:48:33.779Z,4.50
2019-04-30T01:51:13.465Z,4.30
2019-04-30T01:53:54.858Z,4.73
2019-04-30T01:57:12.331Z,5.13
2019-04-30T02:00:09.656Z,5.17
2019-04-30T02:02:59.457Z,4.97
2019-04-30T02:08:52.835Z,5.03
2019-04-30T02:11:51.863Z,4.90
2019-04-30T02:14:44.922Z,5.17
2019-04-30T02:17:16.429Z,4.87
2019-04-30T02:41:47.036Z,5.07
2019-04-30T02:50:11.378Z,5.50
2019-04-30T02:58:15.586Z,6.33
2019-04-30T03:09:05.327Z,5.87
2019-04-30T03:11:41.235Z,5.90
2019-04-30T03:17:21.068Z,7.00
2019-04-30T03:20:34.769Z,6.63
2019-04-30T03:37:24.836Z,7.07
2019-04-30T03:46:12.847Z,7.83
2019-04-30T03:57:51.676Z,8.67
2019-04-30T04:03:04.671Z,9.60
2019-04-30T04:21:07.064Z,9.17
2019-04-30T04:24:10.640Z,10.37
2019-04-30T04:26:51.826Z,9.30
2019-04-30T04:32:26.788Z,9.77
2019-04-30T04:49:31.893Z,11.43
2019-04-30T05:09:53.565Z,11.83
2019-04-30T05:17:49.437Z,12.50
2019-04-30T05:20:22.685Z,11.90
2019-04-30T05:22:53.319Z,11.23
2019-04-30T05:25:23.118Z,12.00
2019-04-30T05:28:14.929Z,11.33
2019-04-30T05:31:00.011Z,10.90
2019-04-30T05:33:29.430Z,11.13
2019-04-30T05:43:00.464Z,12.43
2019-04-30T05:45:33.786Z,13.13
2019-04-30T05:48:03.705Z,13.43
2019-04-30T05:50:35.105Z,13.00
2019-04-30T05:53:11.966Z,13.03
2019-04-30T05:55:41.679Z,15.45
2019-04-30T05:58:11.489Z,15.50
2019-04-30T06:00:43.801Z,32.77
2019-04-30T06:03:25.336Z,27.13
2019-04-30T06:05:46.086Z,13.57
2019-04-30T06:08:21.057Z,13.13
2019-04-30T06:11:20.246Z,13.23
2019-04-30T06:14:12.031Z,13.27
2019-04-30T06:16:44.046Z,13.17
2019-04-30T06:19:13.374Z,12.50
2019-04-30T06:21:45.480Z,12.90
2019-04-30T06:24:15.293Z,13.40
2019-04-30T06:26:46.297Z,12.17
2019-04-30T06:29:18.895Z,13.53
2019-04-30T06:31:48.715Z,12.60
2019-04-30T06:34:19.788Z,12.37
2019-04-30T06:36:54.164Z,14.40
2019-04-30T06:39:25.518Z,14.23
2019-04-30T06:42:04.937Z,15.03
2019-04-30T06:44:38.924Z,15.47
2019-04-30T06:47:05.758Z,14.97
2019-04-30T06:49:36.422Z,15.00
2019-04-30T06:52:20.628Z,14.47
2019-04-30T06:54:51.502Z,14.80
2019-04-30T06:57:21.759Z,14.37
2019-04-30T06:59:53.954Z,14.20
2019-04-30T07:02:24.084Z,14.17
2019-04-30T07:04:53.529Z,13.10
2019-04-30T07:07:37.053Z,13.60
2019-04-30T07:10:16.907Z,14.17
2019-04-30T07:12:59.641Z,13.30
2019-04-30T07:15:29.669Z,13.00
2019-04-30T07:18:00.094Z,13.53
2019-04-30T07:20:33.934Z,14.33
2019-04-30T07:23:04.752Z,13.13
2019-04-30T07:25:34.910Z,13.10
2019-04-30T07:28:04.550Z,13.40
2019-04-30T07:30:39.530Z,11.87
2019-04-30T07:33:09.651Z,12.93
2019-04-30T07:35:39.981Z,12.47
2019-04-30T07:38:09.470Z,11.43
2019-04-30T07:40:39.270Z,12.00
2019-04-30T07:43:12.454Z,11.90
2019-04-30T07:45:42.910Z,11.27
2019-04-30T07:48:16.063Z,12.17
2019-04-30T07:50:45.848Z,11.37
2019-04-30T07:53:18.756Z,11.93
2019-04-30T07:55:49.509Z,12.33
2019-04-30T07:58:20.558Z,13.93
2019-04-30T08:00:56.052Z,14.37
2019-04-30T08:03:51.234Z,13.80
2019-04-30T08:06:23.306Z,13.07
2019-04-30T08:08:57.200Z,13.83
2019-04-30T08:11:26.615Z,13.50
2019-04-30T08:13:58.738Z,14.00
2019-04-30T08:16:30.740Z,15.30
2019-04-30T08:19:00.659Z,14.00
2019-04-30T08:24:23.435Z,13.67
2019-04-30T08:26:53.677Z,12.43
2019-04-30T08:29:24.387Z,13.70
2019-04-30T08:31:53.818Z,13.90
2019-04-30T08:34:30.253Z,15.00
2019-04-30T08:40:31.237Z,14.63
2019-04-30T08:43:09.616Z,14.43
2019-04-30T08:45:43.503Z,15.43
2019-04-30T08:48:24.200Z,15.57
2019-04-30T08:50:54.259Z,15.93
2019-04-30T08:53:38.642Z,15.27
2019-04-30T09:02:25.410Z,16.17
2019-04-30T09:05:09.471Z,15.60
2019-04-30T09:07:42.271Z,16.17
2019-04-30T09:10:42.800Z,15.73
2019-04-30T09:13:38.964Z,17.47
2019-04-30T09:19:29.570Z,21.23
2019-04-30T09:22:20.082Z,21.93
2019-04-30T09:25:21.793Z,21.33
2019-04-30T09:28:24.350Z,22.10
2019-04-30T09:31:23.322Z,23.40
2019-04-30T09:36:40.200Z,21.77
2019-04-30T09:51:35.189Z,14.50
2019-04-30T09:54:39.533Z,10.70
2019-04-30T09:57:11.477Z,11.70
2019-04-30T10:15:15.404Z,8.27
2019-04-30T10:20:42.125Z,9.23
2019-04-30T10:23:49.809Z,7.93
2019-04-30T10:26:22.484Z,7.93
2019-04-30T10:35:00.500Z,7.87
2019-04-30T10:49:58.560Z,7.90
2019-04-30T11:06:19.087Z,5.70
2019-04-30T11:08:56.713Z,6.00
2019-04-30T11:23:49.464Z,8.33
2019-04-30T11:33:30.107Z,8.13
2019-04-30T11:36:03.048Z,9.30
2019-04-30T11:38:43.942Z,9.27
2019-04-30T11:44:58.637Z,10.17
2019-04-30T11:53:40.660Z,10.87
2019-04-30T11:56:20.918Z,10.60
2019-04-30T12:02:23.204Z,9.03
2019-04-30T12:05:01.379Z,7.33
2019-04-30T12:08:15.591Z,7.40
2019-04-30T12:11:15.555Z,7.80
2019-04-30T12:14:34.714Z,7.53
2019-04-30T12:20:33.634Z,7.90
2019-04-30T12:25:49.294Z,9.07
2019-04-30T12:28:44.062Z,7.97
2019-04-30T12:31:29.699Z,8.67
2019-04-30T12:34:19.418Z,8.33
2019-04-30T12:37:14.995Z,8.63
2019-04-30T12:43:04.976Z,10.80
2019-04-30T12:45:52.616Z,8.30
2019-04-30T12:52:09.792Z,8.67
2019-04-30T13:02:58.915Z,8.63
2019-04-30T13:08:16.576Z,6.80
2019-04-30T13:10:54.902Z,7.23
2019-04-30T13:13:32.615Z,6.87
2019-04-30T13:16:06.132Z,8.40
2019-04-30T13:19:00.972Z,8.13
2019-04-30T13:22:14.092Z,7.80
2019-04-30T13:24:59.752Z,7.53
2019-04-30T13:27:47.889Z,7.13
2019-04-30T13:30:23.863Z,7.27
2019-04-30T13:36:36.139Z,7.93
2019-04-30T13:42:15.112Z,7.40
2019-04-30T13:45:20.746Z,7.17
2019-04-30T13:50:24.065Z,7.60
2019-04-30T13:52:58.703Z,8.53
2019-04-30T13:55:43.675Z,7.23
2019-04-30T13:58:06.992Z,7.53
2019-04-30T14:09:43.479Z,8.03
2019-04-30T14:12:12.955Z,10.20
2019-04-30T14:14:42.865Z,8.87
2019-04-30T14:17:16.119Z,9.03
2019-04-30T14:19:53.507Z,10.27
2019-04-30T14:22:27.621Z,10.68
2019-04-30T14:25:03.928Z,9.23
2019-04-30T14:27:48.478Z,7.87
2019-04-30T14:30:09.738Z,7.73
2019-04-30T14:32:40.120Z,8.47
2019-04-30T14:35:10.729Z,8.40
2019-04-30T14:37:44.654Z,9.40
2019-04-30T14:40:19.795Z,9.63
2019-04-30T14:43:09.611Z,9.53
2019-04-30T14:46:07.194Z,9.57
2019-04-30T14:49:26.008Z,10.43
2019-04-30T14:51:56.463Z,9.50
2019-04-30T14:59:15.122Z,8.37
2019-04-30T15:01:51.655Z,8.37
2019-04-30T15:04:26.761Z,9.10
2019-04-30T15:06:54.165Z,8.50
2019-04-30T15:09:45.929Z,8.87
2019-04-30T15:12:27.474Z,8.10
2019-04-30T15:15:22.130Z,6.90
2019-04-30T15:18:09.094Z,5.87
2019-04-30T15:21:04.228Z,5.70
2019-04-30T15:24:01.650Z,5.80
2019-04-30T15:26:40.725Z,5.60
2019-04-30T15:29:14.365Z,5.57
2019-04-30T15:31:43.516Z,6.57
2019-04-30T15:34:14.527Z,6.90
2019-04-30T15:36:46.850Z,6.10
2019-04-30T15:39:39.114Z,5.97
2019-04-30T15:42:10.012Z,6.10
2019-04-30T15:44:45.979Z,5.73
2019-04-30T15:47:26.119Z,6.43
2019-04-30T15:50:02.254Z,7.83
2019-04-30T15:52:34.729Z,7.30
2019-04-30T15:55:25.504Z,8.00
2019-04-30T15:58:03.419Z,6.87
2019-04-30T16:00:34.302Z,7.73
2019-04-30T16:03:09.838Z,8.83
2019-04-30T16:05:46.582Z,8.33
2019-04-30T16:08:44.145Z,8.83
2019-04-30T16:11:36.932Z,8.20
2019-04-30T16:14:14.342Z,8.53
2019-04-30T16:16:57.606Z,8.80
2019-04-30T16:19:28.723Z,8.77
2019-04-30T16:21:59.826Z,8.57
2019-04-30T16:24:29.891Z,6.90
2019-04-30T16:27:01.696Z,8.10
2019-04-30T16:29:51.148Z,7.10
2019-04-30T16:32:23.265Z,7.97
2019-04-30T16:34:59.288Z,7.50
2019-04-30T16:37:36.055Z,7.50
2019-04-30T16:40:10.623Z,7.60
2019-04-30T16:42:50.944Z,7.40
2019-04-30T16:45:21.061Z,7.20
2019-04-30T16:47:50.709Z,6.60
2019-04-30T16:50:23.518Z,7.37
2019-04-30T16:52:56.136Z,6.73
2019-04-30T16:55:31.238Z,6.77
2019-04-30T16:58:02.065Z,7.07
2019-04-30T17:00:35.339Z,6.50
2019-04-30T17:03:19.195Z,6.30
2019-04-30T17:05:59.651Z,6.10
2019-04-30T17:08:42.011Z,4.93
2019-04-30T17:11:16.594Z,5.33
2019-04-30T17:13:55.448Z,5.67
2019-04-30T17:16:30.107Z,5.03
2019-04-30T17:19:20.420Z,5.13
2019-04-30T17:21:56.185Z,5.23
2019-04-30T17:24:25.841Z,4.90
2019-04-30T17:27:01.848Z,5.00
2019-04-30T17:29:36.661Z,5.93
2019-04-30T17:32:10.631Z,5.80
2019-04-30T17:34:45.080Z,5.30
2019-04-30T17:37:14.630Z,4.80
2019-04-30T17:40:09.353Z,5.00
2019-04-30T17:42:45.762Z,5.30
2019-04-30T17:45:25.465Z,4.63
2019-04-30T17:47:50.899Z,4.03
2019-04-30T17:50:36.785Z,3.73
2019-04-30T17:53:15.111Z,4.00
2019-04-30T17:55:43.970Z,4.80
2019-04-30T17:58:20.666Z,4.17
2019-04-30T18:01:28.086Z,4.03
2019-04-30T18:08:41.559Z,4.57
2019-04-30T18:18:00.922Z,4.03
2019-04-30T18:20:30.780Z,4.40
2019-04-30T18:34:09.442Z,3.93
2019-04-30T18:36:42.440Z,4.80
2019-04-30T18:39:31.530Z,5.03
2019-04-30T18:42:10.820Z,4.60
2019-04-30T18:45:09.158Z,4.20
2019-04-30T18:48:12.755Z,5.03
2019-04-30T18:50:51.732Z,4.87
2019-04-30T19:11:20.034Z,5.03
2019-04-30T21:08:16.547Z,22.75
